• Join FlightAware (Why Join?)
  • Login
  • US Flag 
05:25PM EDT


 

Airport Tracker/Info


-or-


 

Live Flight TrackerFlight Track Log ✈ SWA1240 ✈ 15-Jun-2013 ✈ KFLL - KMSY

Flight Track Log - Related Links

Times and Time Zones

All times are in EDT time to prevent confusion due to time zone crossing. See the SWA1240 flight status page for this flight to view local times or setup timezone preferences in your user account.

Time Position Orientation Groundspeed Altitude Reporting Facility
EDT Latitude Longitude Course Direction KTS MPH feet Rate Location/Type
06:32PM 26.0750 -80.1389 83° East 166 191 700  Level Miami Center
06:33PM 26.0800 -80.0953 83° East 212 244 1,700 2,220 Climbing Miami Center
06:33PM 26.0831 -80.0583 85° East 234 269 3,500 2,700 Climbing Miami Center
06:34PM 26.1025 -80.0286 54° Northeast 241 277 4,400 1,560 Climbing Miami Center
06:34PM 26.1375 -80.0481 333° Northwest 266 306 5,100 600 Climbing Miami Center
06:35PM 26.1642 -80.0742 319° Northwest 276 318 5,000 -120 Descending Miami Center
06:35PM 26.1881 -80.1167 302° West 271 312 5,000  Level Miami Center
06:36PM 26.2106 -80.1403 317° Northwest 271 312 5,000 960 Level Miami Center
06:36PM 26.2264 -80.1803 294° West 274 315 5,900 1,380 Climbing Miami Center
06:37PM 26.2403 -80.2106 297° West 277 319 6,400 2,580 Climbing Miami Center
06:37PM 26.2453 -80.2686 275° West 298 343 8,600 3,180 Climbing Miami Center
06:38PM 26.2511 -80.2919 286° West 296 341 9,600 2,220 Climbing Miami Center
06:38PM 26.2597 -80.3594 278° West 305 351 10,900 1,980 Climbing Miami Center
06:39PM 26.2672 -80.3992 282° West 326 375 11,600 2,040 Climbing Miami Center
06:40PM 26.2833 -80.5086 279° West 363 418 13,800 2,400 Climbing Miami Center
06:41PM 26.3267 -80.6142 295° West 374 430 16,500 2,340 Climbing Miami Center
06:42PM 26.3847 -80.7064 305° West 374 430 18,500 1,920 Climbing Miami Center
06:43PM 26.4431 -80.7942 307° West 387 445 20,400 1,980 Climbing Miami Center
06:44PM 26.5072 -80.8914 306° West 392 451 22,500 1,800 Climbing Miami Center
06:45PM 26.5772 -81.0028 305° West 392 451 24,000 1,500 Climbing Miami Center
06:46PM 26.6450 -81.1075 306° West 404 465 25,600 1,380 Climbing Miami Center
06:47PM 26.7131 -81.2144 305° West 423 487 26,800 1,200 Climbing Miami Center
06:48PM 26.7767 -81.3147 305° West 435 501 28,100 1,200 Climbing Miami Center
06:49PM 26.8442 -81.4242 305° West 435 501 29,300 1,560 Climbing Miami Center
06:50PM 26.9006 -81.5592 295° West 435 501 31,300 1,500 Climbing Miami Center
06:51PM 26.9444 -81.6819 292° West 430 495 32,300 1,200 Climbing Miami Center
06:52PM 26.9925 -81.8028 294° West 424 488 33,700 1,140 Climbing Miami Center
06:53PM 27.0369 -81.9097 295° West 424 488 34,600 900 Climbing Miami Center
06:54PM 27.0828 -82.0306 293° West 424 488 35,600 660 Climbing Miami Center
06:55PM 27.1322 -82.1658 292° West 424 488 36,000 180 Climbing Miami Center
06:56PM 27.1781 -82.2753 295° West 426 490 36,000  Level Miami Center
06:57PM 27.2239 -82.3939 294° West 426 490 36,000  Level Miami Center
06:58PM 27.2669 -82.5150 292° West 426 490 36,000  Level Miami Center
06:59PM 27.3164 -82.6392 294° West 421 484 36,000  Level Miami Center
07:00PM 27.3653 -82.7747 292° West 421 484 36,000  Level Miami Center
07:01PM 27.4161 -82.9036 294° West 432 497 36,000  Level Miami Center
07:02PM 27.4631 -83.0300 293° West 437 503 36,000  Level Miami Center
07:03PM 27.5117 -83.1567 293° West 443 510 36,000  Level Miami Center
07:04PM 27.5583 -83.2831 293° West 438 504 36,000  Level Miami Center
07:05PM 27.6047 -83.4075 293° West 438 504 36,000 -60 Level Miami Center
07:06PM 27.6511 -83.5342 292° West 438 504 35,900  Descending Miami Center
07:07PM 27.6994 -83.6589 294° West 443 510 36,000  Climbing Miami Center
07:08PM 27.7419 -83.7786 292° West 433 498 36,000  Level Miami Center
07:09PM 27.7858 -83.9031 292° West 428 493 36,000  Level Miami Center
07:10PM 27.8319 -84.0258 293° West 428 493 36,000  Level Miami Center
07:11PM 27.8822 -84.1461 295° West 423 487 36,000  Level Miami Center
07:12PM 27.9175 -84.2706 288° West 423 487 36,000  Level Miami Center
07:14PM 28.0203 -84.5475 293° West 410 472 36,000  Level Jacksonville Center
07:15PM 28.0667 -84.6731 293° West 415 478 36,000  Level Jacksonville Center
07:16PM 28.1108 -84.7961 292° West 415 478 36,000 -60 Level Jacksonville Center
07:17PM 28.1547 -84.9217 292° West 415 478 35,900  Descending Jacksonville Center
07:18PM 28.2008 -85.0406 294° West 415 478 36,000  Climbing Jacksonville Center
07:19PM 28.2425 -85.1661 291° West 421 484 36,000  Level Jacksonville Center
07:20PM 28.2883 -85.2897 293° West 421 484 36,000  Level Jacksonville Center
07:21PM 28.3297 -85.4111 291° West 416 479 36,000  Level Jacksonville Center
07:22PM 28.3753 -85.5347 293° West 416 479 36,000  Level Jacksonville Center
07:23PM 28.4186 -85.6611 291° West 416 479 36,000  Level Jacksonville Center
07:24PM 28.4617 -85.7828 292° West 416 479 36,000  Level Jacksonville Center
07:25PM 28.5047 -85.9067 292° West 421 484 36,000  Level Jacksonville Center
07:26PM 28.5478 -86.0333 291° West 416 479 36,000  Level Jacksonville Center
07:27PM 28.5925 -86.1600 292° West 416 479 36,000  Level Jacksonville Center
07:28PM 28.6353 -86.2794 292° West 423 487 36,000 -60 Level Jacksonville Center
07:29PM 28.6778 -86.4064 291° West 423 487 35,900  Descending Jacksonville Center
07:30PM 28.7222 -86.5311 292° West 429 494 36,000  Climbing Jacksonville Center
07:31PM 28.7644 -86.6606 290° West 429 494 35,900 -60 Descending Jacksonville Center
07:32PM 28.8108 -86.7878 293° West 434 499 35,900  Level Jacksonville Center
07:33PM 28.8508 -86.9125 290° West 429 494 36,000 60 Climbing Jacksonville Center
07:33PM 28.8675 -86.9589 292° West 424 488 36,000 -120 Level Houston Center
07:34PM 28.9178 -87.1092 291° West 423 487 35,900  Descending Houston Center
07:35PM 28.9592 -87.2342 291° West 421 484 36,000  Climbing Houston Center
07:37PM 29.0008 -87.3583 291° West 418 481 35,900  Descending Houston Center
07:38PM 29.0425 -87.4836 291° West 421 484 36,000  Climbing Houston Center
07:39PM 29.0828 -87.6061 291° West 415 478 35,900  Descending Houston Center
07:40PM 29.1239 -87.7289 291° West 414 476 36,000  Climbing Houston Center
07:41PM 29.1650 -87.8539 291° West 417 480 36,000  Level Houston Center
07:42PM 29.2044 -87.9769 290° West 415 478 36,000  Level Houston Center
07:43PM 29.2456 -88.1014 291° West 416 479 36,000 -120 Level Houston Center
07:44PM 29.2936 -88.2517 290° West 419 482 35,800 -600 Descending Houston Center
07:45PM 29.3336 -88.3753 290° West 417 480 34,800 -1,020 Descending Houston Center
07:46PM 29.3772 -88.4969 292° West 415 478 33,800 -960 Descending Houston Center
07:47PM 29.4139 -88.6236 288° West 417 480 32,900 -960 Descending Houston Center
07:48PM 29.4536 -88.7483 290° West 417 480 31,900 -1,380 Descending Houston Center
07:49PM 29.4936 -88.8708 291° West 415 478 30,100 -1,320 Descending Houston Center
07:50PM 29.5308 -88.9886 290° West 406 467 29,200 -1,920 Descending Houston Center
07:51PM 29.5683 -89.1044 290° West 395 455 26,200 -3,600 Descending Houston Center
07:52PM 29.6142 -89.2486 290° West 396 456 21,900 -3,480 Descending Houston Center
07:52PM 29.6347 -89.3106 291° West 412 474 20,800 -2,160 Descending Houston Center
07:53PM 29.6528 -89.3714 289° West 402 463 19,700 -2,340 Descending Houston Center
07:53PM 29.6681 -89.4239 289° West 407 468 18,700 -2,460 Descending Houston Center
07:54PM 29.7025 -89.4817 304° West 395 455 17,200 -2,460 Descending Houston Center
07:54PM 29.7322 -89.5214 311° West 388 447 16,200 -2,460 Descending Houston Center
07:55PM 29.7706 -89.5778 308° West 390 449 14,700 -2,640 Descending Houston Center
07:55PM 29.8094 -89.6303 310° West 378 435 13,300 -2,460 Descending Houston Center
07:56PM 29.8383 -89.6697 310° West 383 441 12,200 -2,400 Descending Houston Center
07:56PM 29.8708 -89.7139 310° West 372 428 11,100 -1,860 Descending Houston Center
07:57PM 29.9025 -89.7611 308° West 374 430 10,300 -1,020 Descending Houston Center
07:57PM 29.9158 -89.8100 287° West 335 386 10,100 -1,140 Descending Houston Center
07:58PM 29.9322 -89.8561 292° West 322 371 9,200 -1,500 Descending Houston Center
07:58PM 29.9458 -89.8975 291° West 288 331 8,600 -1,500 Descending Houston Center
07:59PM 29.9603 -89.9433 290° West 294 338 7,700 -1,560 Descending Houston Center
08:00PM 30.0092 -90.0389 301° West 253 291 5,800 -2,160 Descending Houston Center
08:01PM 30.0528 -90.1019 309° West 252 290 3,100 -1,980 Descending Houston Center
08:02PM 30.0669 -90.1608 286° West 242 278 2,100 -960 Descending Houston Center
08:03PM 30.0578 -90.2217 260° West 210 242 1,300 -780 Descending Houston Center